createdAt,value
2019-05-26T00:00:59.314Z,0.00
2019-05-26T00:01:59.301Z,0.00
2019-05-26T00:02:59.291Z,0.00
2019-05-26T00:03:59.315Z,0.00
2019-05-26T00:04:59.282Z,0.00
2019-05-26T00:05:59.315Z,0.00
2019-05-26T00:06:59.242Z,0.00
2019-05-26T00:07:59.240Z,0.00
2019-05-26T00:08:59.225Z,0.00
2019-05-26T00:09:59.235Z,0.00
2019-05-26T00:10:59.225Z,0.00
2019-05-26T00:11:59.239Z,0.00
2019-05-26T00:12:59.180Z,0.00
2019-05-26T00:13:59.166Z,0.00
2019-05-26T00:14:59.197Z,0.00
2019-05-26T00:15:59.157Z,0.00
2019-05-26T00:16:59.161Z,0.00
2019-05-26T00:17:59.131Z,0.00
2019-05-26T00:18:59.108Z,0.00
2019-05-26T00:19:59.141Z,0.00
2019-05-26T00:20:59.121Z,0.00
2019-05-26T00:21:59.091Z,0.00
2019-05-26T00:22:59.087Z,0.00
2019-05-26T00:23:59.116Z,0.00
2019-05-26T00:24:59.037Z,0.00
2019-05-26T00:25:59.066Z,0.00
2019-05-26T00:26:59.044Z,0.00
2019-05-26T00:27:59.029Z,0.00
2019-05-26T00:28:58.998Z,0.00
2019-05-26T00:29:58.985Z,0.00
2019-05-26T00:30:59.000Z,0.00
2019-05-26T00:31:58.974Z,0.00
2019-05-26T00:32:58.993Z,0.00
2019-05-26T00:33:58.974Z,0.00
2019-05-26T00:34:58.930Z,0.00
2019-05-26T00:35:58.977Z,0.00
2019-05-26T00:36:58.909Z,0.00
2019-05-26T00:37:58.903Z,0.00
2019-05-26T00:38:58.935Z,0.00
2019-05-26T00:39:58.900Z,0.00
2019-05-26T00:40:58.870Z,0.00
2019-05-26T00:41:58.859Z,0.00
2019-05-26T00:42:58.844Z,0.00
2019-05-26T00:43:58.855Z,0.00
2019-05-26T00:44:58.870Z,0.00
2019-05-26T00:45:58.812Z,0.00
2019-05-26T00:46:58.805Z,0.00
2019-05-26T00:47:58.787Z,0.00
2019-05-26T00:48:58.863Z,0.00
2019-05-26T00:49:58.782Z,0.00
2019-05-26T00:50:58.899Z,0.00
2019-05-26T00:51:58.735Z,0.00
2019-05-26T00:52:58.724Z,0.00
2019-05-26T00:53:58.732Z,0.00
2019-05-26T00:54:58.722Z,0.00
2019-05-26T00:55:58.701Z,0.00
2019-05-26T00:56:58.738Z,0.00
2019-05-26T00:57:58.667Z,0.00
2019-05-26T00:58:58.656Z,0.00
2019-05-26T00:59:58.669Z,0.00
2019-05-26T01:00:58.668Z,0.00
2019-05-26T01:01:58.643Z,0.00
2019-05-26T01:02:58.684Z,0.00
2019-05-26T01:03:58.599Z,0.00
2019-05-26T01:04:58.592Z,0.00
2019-05-26T01:05:58.620Z,0.00
2019-05-26T01:06:58.574Z,0.00
2019-05-26T01:08:06.151Z,0.00
2019-05-26T01:08:58.613Z,0.00
2019-05-26T01:09:58.539Z,0.00
2019-05-26T01:11:01.249Z,0.00
2019-05-26T01:11:58.542Z,0.00
2019-05-26T01:12:58.514Z,0.00
2019-05-26T01:13:58.522Z,0.00
2019-05-26T01:14:58.487Z,0.00
2019-05-26T01:15:58.466Z,0.00
2019-05-26T01:16:58.494Z,0.00
2019-05-26T01:17:58.473Z,0.00
2019-05-26T01:18:58.477Z,0.00
2019-05-26T01:19:58.442Z,0.00
2019-05-26T01:20:58.421Z,0.00
2019-05-26T01:21:58.406Z,0.00
2019-05-26T01:22:58.444Z,0.00
2019-05-26T01:23:58.385Z,0.00
2019-05-26T01:24:58.377Z,0.00
2019-05-26T01:25:58.356Z,0.00
2019-05-26T01:26:58.347Z,0.00
2019-05-26T01:27:58.360Z,0.00
2019-05-26T01:28:58.337Z,0.00
2019-05-26T01:29:58.319Z,0.00
2019-05-26T01:30:58.332Z,0.00
2019-05-26T01:31:58.293Z,0.00
2019-05-26T01:32:58.291Z,0.00
2019-05-26T01:33:58.268Z,0.00
2019-05-26T01:34:58.260Z,0.00
2019-05-26T01:35:58.285Z,0.00
2019-05-26T01:36:58.253Z,0.00
2019-05-26T01:37:58.222Z,0.00
2019-05-26T01:38:58.209Z,0.00
2019-05-26T01:39:58.207Z,0.00
2019-05-26T01:40:58.193Z,0.00
2019-05-26T01:41:58.189Z,0.00
2019-05-26T01:42:58.197Z,0.00
2019-05-26T01:43:58.187Z,0.00
2019-05-26T01:44:58.139Z,0.00
2019-05-26T01:45:58.135Z,0.00
2019-05-26T01:46:58.136Z,0.00
2019-05-26T01:47:58.116Z,0.00
2019-05-26T01:48:58.099Z,0.00
2019-05-26T01:49:58.098Z,0.00
2019-05-26T01:50:58.080Z,0.00
2019-05-26T01:51:58.065Z,0.00
2019-05-26T01:52:58.067Z,0.00
2019-05-26T01:53:58.046Z,0.00
2019-05-26T01:54:58.090Z,0.00
2019-05-26T01:55:58.015Z,0.00
2019-05-26T01:56:58.002Z,0.00
2019-05-26T01:57:58.013Z,0.00
2019-05-26T01:58:57.999Z,0.00
2019-05-26T01:59:57.993Z,0.00
2019-05-26T02:00:58.004Z,0.00
2019-05-26T02:01:58.884Z,0.00
2019-05-26T02:02:57.938Z,0.00
2019-05-26T02:03:57.930Z,0.00
2019-05-26T02:04:57.935Z,0.00
2019-05-26T02:05:57.960Z,0.00
2019-05-26T02:06:57.901Z,0.00
2019-05-26T02:07:57.880Z,0.00
2019-05-26T02:08:57.867Z,0.00
2019-05-26T02:09:57.877Z,0.00
2019-05-26T02:10:57.866Z,0.00
2019-05-26T02:11:57.884Z,0.00
2019-05-26T02:12:57.830Z,0.00
2019-05-26T02:13:57.823Z,0.00
2019-05-26T02:14:57.809Z,0.00
2019-05-26T02:15:57.812Z,0.00
2019-05-26T02:16:57.822Z,0.00
2019-05-26T02:17:57.769Z,0.00
2019-05-26T02:18:57.802Z,0.00
2019-05-26T02:19:57.746Z,0.00
2019-05-26T02:20:57.747Z,0.00
2019-05-26T02:21:57.747Z,0.00
2019-05-26T02:22:57.736Z,0.00
2019-05-26T02:23:57.699Z,0.00
2019-05-26T02:24:57.689Z,0.00
2019-05-26T02:25:57.678Z,0.00
2019-05-26T02:26:57.676Z,0.00
2019-05-26T02:27:57.700Z,0.00
2019-05-26T02:28:57.697Z,0.00
2019-05-26T02:29:57.640Z,0.00
2019-05-26T02:30:57.642Z,0.00
2019-05-26T02:31:57.613Z,0.00
2019-05-26T02:32:57.619Z,0.00
2019-05-26T02:33:57.647Z,0.00
2019-05-26T02:34:57.577Z,0.00
2019-05-26T02:35:57.566Z,0.00
2019-05-26T02:36:57.557Z,0.00
2019-05-26T02:37:57.541Z,0.00
2019-05-26T02:39:02.545Z,0.00
2019-05-26T02:39:57.543Z,0.00
2019-05-26T02:40:57.511Z,0.00
2019-05-26T02:41:57.509Z,0.00
2019-05-26T02:42:57.486Z,0.00
2019-05-26T02:43:57.509Z,0.00
2019-05-26T02:44:59.467Z,0.00
2019-05-26T02:45:57.468Z,0.00
2019-05-26T02:46:57.479Z,0.00
2019-05-26T02:47:57.446Z,0.00
2019-05-26T02:48:57.424Z,0.00
2019-05-26T02:49:57.436Z,0.00
2019-05-26T02:50:57.411Z,0.00
2019-05-26T02:51:57.406Z,0.00
2019-05-26T02:52:57.399Z,0.00
2019-05-26T02:53:57.366Z,0.00
2019-05-26T02:54:57.397Z,0.00
2019-05-26T02:55:57.359Z,0.00
2019-05-26T02:56:57.346Z,0.00
2019-05-26T02:57:57.354Z,0.00
2019-05-26T02:58:57.310Z,0.00
2019-05-26T02:59:57.311Z,0.00
2019-05-26T03:00:57.306Z,0.00
2019-05-26T03:02:03.622Z,0.00
2019-05-26T03:02:58.264Z,0.00
2019-05-26T03:03:57.295Z,0.00
2019-05-26T03:04:57.241Z,0.00
2019-05-26T03:05:57.244Z,4.00
2019-05-26T03:06:57.222Z,4.00
2019-05-26T03:07:57.238Z,0.00
2019-05-26T03:08:57.221Z,4.00
2019-05-26T03:09:57.186Z,4.00
2019-05-26T03:10:57.246Z,4.00
2019-05-26T03:11:57.162Z,4.00
2019-05-26T03:12:57.158Z,4.00
2019-05-26T03:13:57.147Z,4.00
2019-05-26T03:14:57.149Z,8.00
2019-05-26T03:15:57.112Z,4.00
2019-05-26T03:16:57.118Z,8.00
2019-05-26T03:17:57.096Z,8.00
2019-05-26T03:18:57.104Z,8.00
2019-05-26T03:19:57.093Z,12.00
2019-05-26T03:20:57.129Z,12.00
2019-05-26T03:21:57.056Z,12.00
2019-05-26T03:22:57.036Z,12.00
2019-05-26T03:23:57.034Z,16.00
2019-05-26T03:24:57.021Z,12.00
2019-05-26T03:25:57.031Z,16.00
2019-05-26T03:26:57.036Z,16.00
2019-05-26T03:27:56.989Z,16.00
2019-05-26T03:28:56.977Z,20.00
2019-05-26T03:29:56.963Z,16.00
2019-05-26T03:30:56.962Z,20.00
2019-05-26T03:31:56.976Z,20.00
2019-05-26T03:32:56.953Z,24.00
2019-05-26T03:33:56.914Z,24.00
2019-05-26T03:34:56.913Z,24.00
2019-05-26T03:35:56.890Z,28.00
2019-05-26T03:36:56.895Z,28.00
2019-05-26T03:37:56.899Z,32.00
2019-05-26T03:38:56.894Z,36.00
2019-05-26T03:39:56.852Z,36.00
2019-05-26T03:40:56.948Z,36.00
2019-05-26T03:41:56.823Z,40.00
2019-05-26T03:42:56.839Z,40.00
2019-05-26T03:43:56.828Z,44.00
2019-05-26T03:44:56.787Z,44.00
2019-05-26T03:45:56.780Z,48.00
2019-05-26T03:46:56.778Z,52.00
2019-05-26T03:47:56.783Z,52.00
2019-05-26T03:48:56.755Z,56.00
2019-05-26T03:49:57.423Z,60.00
2019-05-26T03:50:56.723Z,60.00
2019-05-26T03:51:56.718Z,64.00
2019-05-26T03:52:56.743Z,68.00
2019-05-26T03:53:56.781Z,72.00
2019-05-26T03:54:56.696Z,72.00
2019-05-26T03:55:56.664Z,76.00
2019-05-26T03:56:56.660Z,84.00
2019-05-26T03:57:56.681Z,92.00
2019-05-26T03:58:56.641Z,100.00
2019-05-26T03:59:56.637Z,112.00
2019-05-26T04:00:56.619Z,124.00
2019-05-26T04:01:57.851Z,136.00
2019-05-26T04:02:56.590Z,148.00
2019-05-26T04:03:56.597Z,160.00
2019-05-26T04:04:56.563Z,160.00
2019-05-26T04:05:56.570Z,160.00
2019-05-26T04:06:56.563Z,168.00
2019-05-26T04:07:56.536Z,184.00
2019-05-26T04:08:56.523Z,196.00
2019-05-26T04:10:04.841Z,212.00
2019-05-26T04:10:57.519Z,228.00
2019-05-26T04:11:56.502Z,244.00
2019-05-26T04:12:56.505Z,252.00
2019-05-26T04:13:56.520Z,256.00
2019-05-26T04:14:56.450Z,260.00
2019-05-26T04:15:56.442Z,272.00
2019-05-26T04:16:56.578Z,276.00
2019-05-26T04:17:56.433Z,296.00
2019-05-26T04:18:56.446Z,312.00
2019-05-26T04:19:56.443Z,328.00
2019-05-26T04:20:56.389Z,332.00
2019-05-26T04:21:56.376Z,336.00
2019-05-26T04:22:56.382Z,340.00
2019-05-26T04:23:56.371Z,344.00
2019-05-26T04:24:56.367Z,348.00
2019-05-26T04:25:56.326Z,340.00
2019-05-26T04:26:56.336Z,336.00
2019-05-26T04:27:56.314Z,340.00
2019-05-26T04:28:56.302Z,336.00
2019-05-26T04:29:56.331Z,352.00
2019-05-26T04:30:56.308Z,376.00
2019-05-26T04:32:01.554Z,392.00
2019-05-26T04:32:57.288Z,424.00
2019-05-26T04:33:56.241Z,444.00
2019-05-26T04:34:56.245Z,452.00
2019-05-26T04:35:56.242Z,452.00
2019-05-26T04:36:56.202Z,444.00
2019-05-26T04:37:56.196Z,464.00
2019-05-26T04:38:56.184Z,488.00
2019-05-26T04:39:56.177Z,508.00
2019-05-26T04:40:56.197Z,536.00
2019-05-26T04:41:56.164Z,556.00
2019-05-26T04:42:56.134Z,572.00
2019-05-26T04:43:56.123Z,588.00
2019-05-26T04:44:56.117Z,612.00
2019-05-26T04:45:56.136Z,616.00
2019-05-26T04:46:56.098Z,620.00
2019-05-26T04:47:56.082Z,616.00
2019-05-26T04:48:56.067Z,612.00
2019-05-26T04:49:56.057Z,616.00
2019-05-26T04:50:56.094Z,624.00
2019-05-26T04:51:56.043Z,632.00
2019-05-26T04:53:06.241Z,616.00
2019-05-26T04:53:56.015Z,600.00
2019-05-26T04:54:56.001Z,604.00
2019-05-26T04:55:56.021Z,600.00
2019-05-26T04:56:55.980Z,608.00
2019-05-26T04:57:55.979Z,648.00
2019-05-26T04:58:55.979Z,668.00
2019-05-26T04:59:55.962Z,672.00
2019-05-26T05:00:55.931Z,664.00
2019-05-26T05:01:55.945Z,692.00
2019-05-26T05:02:55.915Z,720.00
2019-05-26T05:03:55.915Z,732.00
2019-05-26T05:04:55.917Z,728.00
2019-05-26T05:05:55.886Z,704.00
2019-05-26T05:06:55.895Z,688.00
2019-05-26T05:07:56.471Z,668.00
2019-05-26T05:08:55.879Z,644.00
2019-05-26T05:09:55.854Z,640.00
2019-05-26T05:10:56.460Z,660.00
2019-05-26T05:11:55.870Z,684.00
2019-05-26T05:12:55.801Z,692.00
2019-05-26T05:13:55.786Z,704.00
2019-05-26T05:14:55.797Z,720.00
2019-05-26T05:15:55.784Z,732.00
2019-05-26T05:16:55.783Z,740.00
2019-05-26T05:17:55.754Z,756.00
2019-05-26T05:18:55.733Z,752.00
2019-05-26T05:19:55.735Z,748.00
2019-05-26T05:20:55.715Z,780.00
2019-05-26T05:21:55.747Z,808.00
2019-05-26T05:22:55.721Z,836.00
2019-05-26T05:23:55.679Z,848.00
2019-05-26T05:24:55.662Z,852.00
2019-05-26T05:25:55.672Z,848.00
2019-05-26T05:26:55.652Z,848.00
2019-05-26T05:27:55.684Z,828.00
2019-05-26T05:28:55.625Z,804.00
2019-05-26T05:29:55.611Z,788.00
2019-05-26T05:30:55.597Z,804.00
2019-05-26T05:31:55.606Z,828.00
2019-05-26T05:32:55.597Z,868.00
2019-05-26T05:33:55.587Z,900.00
2019-05-26T05:34:55.621Z,936.00
2019-05-26T05:35:55.544Z,964.00
2019-05-26T05:36:55.527Z,992.00
2019-05-26T05:37:55.537Z,1024.00
2019-05-26T05:38:55.527Z,1048.00
2019-05-26T05:39:55.526Z,1060.00
2019-05-26T05:40:59.831Z,1056.00
2019-05-26T05:41:55.471Z,1044.00
2019-05-26T05:42:55.461Z,1036.00
2019-05-26T05:43:55.978Z,1020.00
2019-05-26T05:44:55.459Z,1024.00
2019-05-26T05:45:55.452Z,1044.00
2019-05-26T05:46:55.419Z,1060.00
2019-05-26T05:47:55.468Z,1056.00
2019-05-26T05:48:55.423Z,1024.00
2019-05-26T05:49:55.949Z,996.00
2019-05-26T05:50:55.391Z,976.00
2019-05-26T05:51:55.412Z,960.00
2019-05-26T05:52:55.525Z,960.00
2019-05-26T05:53:55.354Z,984.00
2019-05-26T05:54:55.341Z,1024.00
2019-05-26T05:55:55.346Z,1072.00
2019-05-26T05:56:55.865Z,1084.00
2019-05-26T05:57:55.302Z,1100.00
2019-05-26T05:58:55.971Z,1124.00
2019-05-26T05:59:55.268Z,1152.00
2019-05-26T06:00:55.276Z,1180.00
2019-05-26T06:01:55.980Z,1236.00
2019-05-26T06:02:55.297Z,1332.00
2019-05-26T06:03:55.234Z,1432.00
2019-05-26T06:04:55.213Z,1524.00
2019-05-26T06:05:55.237Z,1592.00
2019-05-26T06:06:55.212Z,1616.00
2019-05-26T06:07:55.209Z,1576.00
2019-05-26T06:08:55.194Z,1516.00
2019-05-26T06:09:55.168Z,1460.00
2019-05-26T06:10:55.149Z,1416.00
2019-05-26T06:11:56.981Z,1432.00
2019-05-26T06:12:55.156Z,1476.00
2019-05-26T06:13:55.135Z,1548.00
2019-05-26T06:14:55.102Z,1588.00
2019-05-26T06:15:55.089Z,1592.00
2019-05-26T06:16:55.082Z,1592.00
2019-05-26T06:17:55.086Z,1580.00
2019-05-26T06:18:55.077Z,1600.00
2019-05-26T06:19:55.060Z,1640.00
2019-05-26T06:20:55.035Z,1676.00
2019-05-26T06:21:55.027Z,1688.00
2019-05-26T06:22:55.010Z,1652.00
2019-05-26T06:23:55.511Z,1612.00
2019-05-26T06:24:55.007Z,1568.00
2019-05-26T06:25:55.003Z,1492.00
2019-05-26T06:26:54.968Z,1400.00
2019-05-26T06:27:54.955Z,1320.00
2019-05-26T06:28:54.970Z,1276.00
2019-05-26T06:29:58.710Z,1268.00
2019-05-26T06:30:54.950Z,1304.00
2019-05-26T06:31:55.362Z,1380.00
2019-05-26T06:32:54.902Z,1468.00
2019-05-26T06:33:54.890Z,1556.00
2019-05-26T06:34:54.899Z,1624.00
2019-05-26T06:35:54.888Z,1668.00
2019-05-26T06:36:54.874Z,1696.00
2019-05-26T06:37:54.872Z,1732.00
2019-05-26T06:38:54.887Z,1792.00
2019-05-26T06:39:54.826Z,1856.00
2019-05-26T06:40:54.807Z,1888.00
2019-05-26T06:41:54.827Z,1976.00
2019-05-26T06:42:54.814Z,2104.00
2019-05-26T06:43:54.805Z,2200.00
2019-05-26T06:44:54.780Z,2272.00
2019-05-26T06:45:54.791Z,2276.00
2019-05-26T06:46:54.753Z,2200.00
2019-05-26T06:47:54.807Z,2156.00
2019-05-26T06:48:54.744Z,2108.00
2019-05-26T06:49:54.710Z,2072.00
2019-05-26T06:50:54.757Z,2092.00
2019-05-26T06:51:54.707Z,2180.00
2019-05-26T06:52:54.690Z,2272.00
2019-05-26T06:53:54.704Z,2296.00
2019-05-26T06:54:54.673Z,2264.00
2019-05-26T06:55:54.643Z,2220.00
2019-05-26T06:56:54.633Z,2204.00
2019-05-26T06:57:54.626Z,2192.00
2019-05-26T06:58:55.048Z,2220.00
2019-05-26T06:59:54.617Z,2312.00
2019-05-26T07:00:54.637Z,2432.00
2019-05-26T07:01:54.581Z,2564.00
2019-05-26T07:02:54.582Z,2668.00
2019-05-26T07:03:54.553Z,2744.00
2019-05-26T07:04:54.562Z,2796.00
2019-05-26T07:05:54.548Z,2840.00
2019-05-26T07:06:54.547Z,2860.00
2019-05-26T07:07:54.513Z,2852.00
2019-05-26T07:08:54.500Z,2852.00
2019-05-26T07:09:54.484Z,2808.00
2019-05-26T07:10:54.491Z,2760.00
2019-05-26T07:11:59.985Z,2720.00
2019-05-26T07:12:54.488Z,2740.00
2019-05-26T07:13:54.453Z,2788.00
2019-05-26T07:14:54.435Z,2812.00
2019-05-26T07:15:54.424Z,2756.00
2019-05-26T07:16:54.429Z,2688.00
2019-05-26T07:17:54.409Z,2612.00
2019-05-26T07:18:54.414Z,2552.00
2019-05-26T07:19:54.379Z,2500.00
2019-05-26T07:20:54.440Z,2476.00
2019-05-26T07:21:54.495Z,2444.00
2019-05-26T07:22:54.354Z,2396.00
2019-05-26T07:23:54.347Z,2360.00
2019-05-26T07:24:54.324Z,2320.00
2019-05-26T07:25:54.306Z,2252.00
2019-05-26T07:26:54.362Z,2204.00
2019-05-26T07:27:54.302Z,2172.00
2019-05-26T07:28:54.317Z,2112.00
2019-05-26T07:29:54.312Z,2068.00
2019-05-26T07:30:54.295Z,2036.00
2019-05-26T07:31:54.241Z,2004.00
2019-05-26T07:32:54.245Z,1968.00
2019-05-26T07:33:54.235Z,1968.00
2019-05-26T07:34:54.221Z,2016.00
2019-05-26T07:35:54.218Z,2076.00
2019-05-26T07:36:54.199Z,2152.00
2019-05-26T07:37:54.181Z,2244.00
2019-05-26T07:38:54.179Z,2332.00
2019-05-26T07:39:54.170Z,2360.00
2019-05-26T07:40:54.174Z,2344.00
2019-05-26T07:42:09.508Z,2308.00
2019-05-26T07:42:55.122Z,2292.00
2019-05-26T07:43:54.173Z,2292.00
2019-05-26T07:44:54.102Z,2292.00
2019-05-26T07:45:54.099Z,2272.00
2019-05-26T07:46:54.097Z,2252.00
2019-05-26T07:47:54.066Z,2232.00
2019-05-26T07:48:54.056Z,2252.00
2019-05-26T07:49:54.050Z,2312.00
2019-05-26T07:50:54.037Z,2380.00
2019-05-26T07:51:54.051Z,2448.00
2019-05-26T07:52:54.037Z,2528.00
2019-05-26T07:53:56.128Z,2584.00
2019-05-26T07:54:54.070Z,2600.00
2019-05-26T07:55:53.975Z,2636.00
2019-05-26T07:56:53.981Z,2672.00
2019-05-26T07:57:53.972Z,2736.00
2019-05-26T07:58:53.963Z,2804.00
2019-05-26T07:59:53.963Z,2844.00
2019-05-26T08:00:53.927Z,2900.00
2019-05-26T08:01:53.907Z,2968.00
2019-05-26T08:02:53.913Z,3076.00
2019-05-26T08:03:53.909Z,3156.00
2019-05-26T08:04:53.899Z,3148.00
2019-05-26T08:05:53.869Z,3108.00
2019-05-26T08:06:53.857Z,3060.00
2019-05-26T08:07:53.852Z,3044.00
2019-05-26T08:08:53.843Z,3068.00
2019-05-26T08:09:53.858Z,3080.00
2019-05-26T08:10:53.832Z,3080.00
2019-05-26T08:11:53.802Z,3072.00
2019-05-26T08:12:53.791Z,3040.00
2019-05-26T08:13:53.774Z,3000.00
2019-05-26T08:14:53.783Z,2976.00
2019-05-26T08:15:53.781Z,2964.00
2019-05-26T08:16:53.746Z,2972.00
2019-05-26T08:17:53.730Z,2996.00
2019-05-26T08:18:53.715Z,3016.00
2019-05-26T08:19:53.708Z,3024.00
2019-05-26T08:20:53.739Z,3048.00
2019-05-26T08:21:54.732Z,3084.00
2019-05-26T08:22:53.676Z,3100.00
2019-05-26T08:23:53.662Z,3132.00
2019-05-26T08:24:53.660Z,3180.00
2019-05-26T08:25:54.200Z,3196.00
2019-05-26T08:26:53.641Z,3216.00
2019-05-26T08:27:53.645Z,3228.00
2019-05-26T08:28:53.604Z,3228.00
2019-05-26T08:29:53.613Z,3228.00
2019-05-26T08:30:53.595Z,3212.00
2019-05-26T08:31:53.593Z,3228.00
2019-05-26T08:32:53.581Z,3264.00
2019-05-26T08:33:53.575Z,3324.00
2019-05-26T08:34:53.592Z,3372.00
2019-05-26T08:35:53.528Z,3364.00
2019-05-26T08:36:53.517Z,3332.00
2019-05-26T08:37:53.528Z,3272.00
2019-05-26T08:38:53.529Z,3236.00
2019-05-26T08:39:53.575Z,3220.00
2019-05-26T08:40:53.485Z,3244.00
2019-05-26T08:41:53.459Z,3272.00
2019-05-26T08:42:53.450Z,3316.00
2019-05-26T08:43:53.462Z,3340.00
2019-05-26T08:44:53.456Z,3336.00
2019-05-26T08:45:53.445Z,3320.00
2019-05-26T08:46:53.413Z,3296.00
2019-05-26T08:47:53.405Z,3256.00
2019-05-26T08:48:53.404Z,3224.00
2019-05-26T08:49:53.408Z,3192.00
2019-05-26T08:50:53.384Z,3184.00
2019-05-26T08:51:53.383Z,3204.00
2019-05-26T08:52:53.350Z,3240.00
2019-05-26T08:53:53.326Z,3284.00
2019-05-26T08:54:53.349Z,3348.00
2019-05-26T08:55:53.325Z,3400.00
2019-05-26T08:56:53.326Z,3436.00
2019-05-26T08:57:53.334Z,3456.00
2019-05-26T08:58:53.282Z,3476.00
2019-05-26T08:59:53.269Z,3484.00
2019-05-26T09:00:53.434Z,3448.00
2019-05-26T09:01:53.256Z,3396.00
2019-05-26T09:02:53.247Z,3320.00
2019-05-26T09:03:53.272Z,3232.00
2019-05-26T09:04:53.214Z,3148.00
2019-05-26T09:05:53.197Z,3088.00
2019-05-26T09:06:53.217Z,3040.00
2019-05-26T09:07:53.191Z,3012.00
2019-05-26T09:08:53.185Z,2952.00
2019-05-26T09:09:53.162Z,2844.00
2019-05-26T09:10:53.135Z,2672.00
2019-05-26T09:11:53.125Z,2456.00
2019-05-26T09:13:00.963Z,2204.00
2019-05-26T09:13:54.145Z,2000.00
2019-05-26T09:14:53.118Z,1776.00
2019-05-26T09:15:53.088Z,1568.00
2019-05-26T09:16:53.072Z,1436.00
2019-05-26T09:17:53.073Z,1356.00
2019-05-26T09:18:53.062Z,1304.00
2019-05-26T09:19:53.057Z,1284.00
2019-05-26T09:20:53.023Z,1276.00
2019-05-26T09:21:53.016Z,1264.00
2019-05-26T09:22:53.007Z,1248.00
2019-05-26T09:23:53.023Z,1232.00
2019-05-26T09:24:52.992Z,1228.00
2019-05-26T09:25:53.003Z,1228.00
2019-05-26T09:26:52.955Z,1228.00
2019-05-26T09:27:52.950Z,1220.00
2019-05-26T09:28:52.935Z,1216.00
2019-05-26T09:29:52.937Z,1212.00
2019-05-26T09:30:52.927Z,1208.00
2019-05-26T09:31:52.924Z,1196.00
2019-05-26T09:32:52.901Z,1200.00
2019-05-26T09:33:52.885Z,1196.00
2019-05-26T09:34:52.886Z,1196.00
2019-05-26T09:35:53.055Z,1200.00
2019-05-26T09:36:52.866Z,1208.00
2019-05-26T09:37:52.859Z,1216.00
2019-05-26T09:38:52.826Z,1220.00
2019-05-26T09:39:52.818Z,1212.00
2019-05-26T09:40:52.815Z,1208.00
2019-05-26T09:41:52.811Z,1200.00
2019-05-26T09:42:52.796Z,1200.00
2019-05-26T09:43:52.800Z,1220.00
2019-05-26T09:44:52.759Z,1248.00
2019-05-26T09:45:52.758Z,1252.00
2019-05-26T09:46:52.733Z,1248.00
2019-05-26T09:47:52.744Z,1220.00
2019-05-26T09:48:52.754Z,1084.00
2019-05-26T09:49:52.704Z,1116.00
2019-05-26T09:50:52.738Z,1160.00
2019-05-26T09:51:52.677Z,1184.00
2019-05-26T09:52:52.700Z,1216.00
2019-05-26T09:54:01.222Z,1224.00
2019-05-26T09:54:52.693Z,1264.00
2019-05-26T09:55:52.696Z,1256.00
2019-05-26T09:56:52.623Z,1292.00
2019-05-26T09:57:53.525Z,1292.00
2019-05-26T09:58:52.607Z,1232.00
2019-05-26T09:59:52.601Z,1160.00
2019-05-26T10:00:52.608Z,1120.00
2019-05-26T10:01:52.583Z,1092.00
2019-05-26T10:02:52.569Z,1088.00
2019-05-26T10:03:52.578Z,1140.00
2019-05-26T10:04:52.538Z,1252.00
2019-05-26T10:05:52.536Z,1328.00
2019-05-26T10:06:52.576Z,1356.00
2019-05-26T10:07:52.498Z,1380.00
2019-05-26T10:08:52.500Z,1360.00
2019-05-26T10:09:52.498Z,1328.00
2019-05-26T10:10:52.474Z,1332.00
2019-05-26T10:11:52.470Z,1372.00
2019-05-26T10:12:52.468Z,1316.00
2019-05-26T10:13:52.436Z,1308.00
2019-05-26T10:14:52.419Z,1296.00
2019-05-26T10:15:52.459Z,1280.00
2019-05-26T10:16:52.428Z,1308.00
2019-05-26T10:17:52.413Z,1368.00
2019-05-26T10:18:52.414Z,1472.00
2019-05-26T10:19:52.430Z,1692.00
2019-05-26T10:20:52.358Z,1928.00
2019-05-26T10:21:52.445Z,1900.00
2019-05-26T10:22:52.353Z,1832.00
2019-05-26T10:23:53.196Z,1804.00
2019-05-26T10:24:52.310Z,1792.00
2019-05-26T10:25:52.302Z,1852.00
2019-05-26T10:26:52.320Z,2124.00
2019-05-26T10:27:52.289Z,2196.00
2019-05-26T10:28:52.349Z,2088.00
2019-05-26T10:29:52.273Z,1864.00
2019-05-26T10:30:52.247Z,1728.00
2019-05-26T10:31:52.392Z,1632.00
2019-05-26T10:32:52.230Z,1552.00
2019-05-26T10:33:52.244Z,1468.00
2019-05-26T10:34:52.215Z,1376.00
2019-05-26T10:35:52.217Z,1292.00
2019-05-26T10:36:52.178Z,1236.00
2019-05-26T10:37:52.184Z,1196.00
2019-05-26T10:38:52.166Z,1188.00
2019-05-26T10:39:52.187Z,1272.00
2019-05-26T10:40:52.156Z,1388.00
2019-05-26T10:41:52.157Z,1484.00
2019-05-26T10:42:52.116Z,1552.00
2019-05-26T10:43:52.102Z,1564.00
2019-05-26T10:44:52.091Z,1428.00
2019-05-26T10:45:52.126Z,1476.00
2019-05-26T10:46:52.094Z,1544.00
2019-05-26T10:47:52.062Z,1548.00
2019-05-26T10:48:52.045Z,1580.00
2019-05-26T10:49:52.032Z,1572.00
2019-05-26T10:50:52.030Z,1556.00
2019-05-26T10:51:52.031Z,1528.00
2019-05-26T10:52:52.033Z,1520.00
2019-05-26T10:53:51.988Z,1504.00
2019-05-26T10:54:52.001Z,1520.00
2019-05-26T10:55:51.969Z,1548.00
2019-05-26T10:56:51.982Z,1608.00
2019-05-26T10:57:51.967Z,1636.00
2019-05-26T10:58:51.965Z,1616.00
2019-05-26T10:59:51.940Z,1664.00
2019-05-26T11:00:51.918Z,1700.00
2019-05-26T11:01:52.117Z,1756.00
2019-05-26T11:02:51.944Z,1740.00
2019-05-26T11:03:51.897Z,1732.00
2019-05-26T11:04:51.868Z,1748.00
2019-05-26T11:05:51.860Z,1760.00
2019-05-26T11:06:51.844Z,1800.00
2019-05-26T11:07:51.860Z,1760.00
2019-05-26T11:08:51.839Z,1732.00
2019-05-26T11:09:51.835Z,1752.00
2019-05-26T11:10:51.798Z,1672.00
2019-05-26T11:11:51.793Z,1612.00
2019-05-26T11:12:51.786Z,1620.00
2019-05-26T11:14:02.579Z,1580.00
2019-05-26T11:14:51.778Z,1528.00
2019-05-26T11:15:51.776Z,1468.00
2019-05-26T11:16:51.735Z,1432.00
2019-05-26T11:17:51.772Z,1420.00
2019-05-26T11:18:51.711Z,1512.00
2019-05-26T11:19:51.706Z,1520.00
2019-05-26T11:20:51.701Z,1528.00
2019-05-26T11:21:51.703Z,1504.00
2019-05-26T11:22:51.666Z,1600.00
2019-05-26T11:23:51.677Z,1676.00
2019-05-26T11:24:51.654Z,1768.00
2019-05-26T11:25:51.650Z,1820.00
2019-05-26T11:26:51.655Z,1880.00
2019-05-26T11:27:51.644Z,1964.00
2019-05-26T11:28:51.649Z,2096.00
2019-05-26T11:29:51.611Z,2180.00
2019-05-26T11:30:51.586Z,2100.00
2019-05-26T11:31:51.580Z,1860.00
2019-05-26T11:32:51.575Z,1700.00
2019-05-26T11:33:51.592Z,1688.00
2019-05-26T11:35:01.179Z,1624.00
2019-05-26T11:35:52.531Z,1560.00
2019-05-26T11:36:51.513Z,1516.00
2019-05-26T11:37:51.515Z,1568.00
2019-05-26T11:38:51.539Z,1732.00
2019-05-26T11:39:51.506Z,1880.00
2019-05-26T11:40:51.565Z,1928.00
2019-05-26T11:41:54.920Z,1940.00
2019-05-26T11:42:51.446Z,2004.00
2019-05-26T11:43:51.466Z,2040.00
2019-05-26T11:44:51.450Z,1976.00
2019-05-26T11:45:51.450Z,1892.00
2019-05-26T11:46:51.418Z,1828.00
2019-05-26T11:47:51.416Z,1908.00
2019-05-26T11:48:51.385Z,1992.00
2019-05-26T11:49:51.463Z,1992.00
2019-05-26T11:50:51.576Z,1932.00
2019-05-26T11:51:51.548Z,1988.00
2019-05-26T11:52:51.391Z,2008.00
2019-05-26T11:53:51.334Z,2228.00
2019-05-26T11:54:51.319Z,2356.00
2019-05-26T11:55:51.327Z,2404.00
2019-05-26T11:56:51.315Z,2368.00
2019-05-26T11:57:51.285Z,2360.00
2019-05-26T11:58:51.292Z,2196.00
2019-05-26T11:59:51.352Z,2212.00
2019-05-26T12:00:51.251Z,2168.00
2019-05-26T12:01:51.271Z,2312.00
2019-05-26T12:02:51.247Z,2384.00
2019-05-26T12:03:51.256Z,2188.00
2019-05-26T12:04:51.210Z,2112.00
2019-05-26T12:05:51.193Z,2288.00
2019-05-26T12:06:51.186Z,2500.00
2019-05-26T12:07:51.181Z,2672.00
2019-05-26T12:08:51.178Z,2372.00
2019-05-26T12:09:51.198Z,2036.00
2019-05-26T12:10:51.148Z,1928.00
2019-05-26T12:11:51.149Z,1876.00
2019-05-26T12:12:51.129Z,1800.00
2019-05-26T12:13:51.140Z,1816.00
2019-05-26T12:14:51.127Z,1936.00
2019-05-26T12:15:51.125Z,2012.00
2019-05-26T12:16:51.079Z,2004.00
2019-05-26T12:17:51.072Z,1820.00
2019-05-26T12:18:51.072Z,1676.00
2019-05-26T12:19:51.056Z,1524.00
2019-05-26T12:20:51.048Z,1404.00
2019-05-26T12:21:51.018Z,1340.00
2019-05-26T12:22:51.041Z,1440.00
2019-05-26T12:23:54.749Z,1316.00
2019-05-26T12:24:51.006Z,1184.00
2019-05-26T12:25:51.003Z,1304.00
2019-05-26T12:26:50.993Z,1376.00
2019-05-26T12:27:51.004Z,1296.00
2019-05-26T12:28:51.011Z,1248.00
2019-05-26T12:29:50.933Z,1176.00